Time;durP1;ratioP1;P1;durP2;ratioP2;P2;SDS_P1;SDS_P2;PMS_P1;PMS_P2;Temp;Humidity;BMP_temperature;BMP_pressure;BME280_temperature;BME280_humidity;BME280_pressure;Samples;Min_cycle;Max_cycle;Signal;HPM_P1;HPM_P2
2021/11/15 00:00:44;;;;;;;10.82;9.88;;;10.00;99.90;;;;;;4177413;28;20039;-52
2021/11/15 00:02:46;;;;;;;10.95;10.32;;;10.00;99.90;;;;;;4175585;28;20061;-52
2021/11/15 00:04:49;;;;;;;10.52;9.80;;;10.10;99.90;;;;;;4178284;28;20099;-50
2021/11/15 00:06:51;;;;;;;13.27;12.20;;;10.10;99.90;;;;;;4177243;28;20112;-49
2021/11/15 00:08:53;;;;;;;13.50;12.25;;;10.10;99.90;;;;;;4178537;28;20094;-51
2021/11/15 00:10:55;;;;;;;15.43;13.70;;;10.10;99.90;;;;;;4177341;28;20092;-51
2021/11/15 00:12:57;;;;;;;17.55;14.85;;;10.00;99.90;;;;;;4178236;28;20041;-51
2021/11/15 00:14:59;;;;;;;14.48;13.43;;;10.00;99.90;;;;;;4175611;28;20771;-52
2021/11/15 00:17:02;;;;;;;16.73;13.15;;;10.00;99.90;;;;;;4165793;28;20053;-52
2021/11/15 00:19:04;;;;;;;17.00;15.30;;;10.00;99.90;;;;;;4169423;28;20437;-51
2021/11/15 00:21:06;;;;;;;17.95;16.20;;;10.00;99.90;;;;;;4178742;28;20060;-48
2021/11/15 00:23:08;;;;;;;17.67;15.90;;;10.00;99.90;;;;;;4176040;28;20059;-52
2021/11/15 00:25:12;;;;;;;20.73;18.92;;;10.00;99.90;;;;;;4177557;28;20037;-49
2021/11/15 00:27:14;;;;;;;18.52;16.63;;;10.00;99.90;;;;;;4173093;28;20112;-51
2021/11/15 00:29:16;;;;;;;16.50;15.15;;;10.00;99.90;;;;;;4172465;28;20045;-52
2021/11/15 00:31:19;;;;;;;15.63;14.38;;;10.00;99.90;;;;;;4175349;28;20067;-52
2021/11/15 00:33:21;;;;;;;16.15;14.57;;;9.90;99.90;;;;;;4163272;28;20041;-52
2021/11/15 00:35:23;;;;;;;17.17;13.57;;;9.90;99.90;;;;;;4173833;28;20064;-52
2021/11/15 00:37:25;;;;;;;16.83;14.93;;;9.90;99.90;;;;;;4178936;28;20091;-51
2021/11/15 00:39:27;;;;;;;16.27;14.85;;;9.90;99.90;;;;;;4176556;28;20044;-52
2021/11/15 00:41:29;;;;;;;15.95;13.60;;;9.80;99.90;;;;;;4178575;28;20049;-52
2021/11/15 00:43:32;;;;;;;16.77;15.15;;;9.90;99.90;;;;;;4176785;28;20112;-51
2021/11/15 00:45:34;;;;;;;15.32;14.02;;;9.90;99.90;;;;;;4166387;28;20075;-51
2021/11/15 00:47:36;;;;;;;;;;;9.80;99.90;;;;;;4175241;28;20443;-53
2021/11/15 00:49:39;;;;;;;19.73;15.27;;;9.80;99.90;;;;;;4179018;28;19956;-53
2021/11/15 00:51:41;;;;;;;14.50;13.05;;;9.80;99.90;;;;;;4177076;28;20295;-53
2021/11/15 00:53:43;;;;;;;14.00;12.57;;;9.80;99.90;;;;;;4178832;28;20423;-53
2021/11/15 00:55:45;;;;;;;13.75;12.55;;;9.80;99.90;;;;;;4175304;28;20079;-52
2021/11/15 00:57:47;;;;;;;12.43;11.35;;;9.90;99.90;;;;;;4177965;28;20041;-52
2021/11/15 00:59:50;;;;;;;12.20;11.38;;;9.90;99.90;;;;;;4176398;28;20041;-53
2021/11/15 01:01:52;;;;;;;16.27;11.85;;;9.80;99.90;;;;;;4177530;28;20071;-49
2021/11/15 01:03:54;;;;;;;13.07;12.10;;;9.80;99.90;;;;;;4175499;28;20495;-53
2021/11/15 01:05:57;;;;;;;13.88;12.80;;;9.80;99.90;;;;;;4177741;28;20041;-51
2021/11/15 01:07:59;;;;;;;13.98;12.43;;;9.90;99.90;;;;;;4174610;28;20408;-53
2021/11/15 01:10:02;;;;;;;11.60;10.48;;;9.90;99.90;;;;;;4176884;28;20125;-52
2021/11/15 01:12:05;;;;;;;12.40;11.20;;;9.90;99.90;;;;;;4175338;28;20059;-51
2021/11/15 01:14:07;;;;;;;12.10;10.90;;;9.90;99.90;;;;;;4173130;28;20049;-52
2021/11/15 01:16:09;;;;;;;13.18;12.27;;;9.80;99.90;;;;;;4174300;28;20057;-53
2021/11/15 01:18:12;;;;;;;13.77;12.20;;;9.80;99.90;;;;;;4179377;28;20037;-53
2021/11/15 01:20:17;;;;;;;14.93;12.98;;;9.80;99.90;;;;;;4181375;28;20079;-52
2021/11/15 01:22:19;;;;;;;12.70;11.60;;;9.80;99.90;;;;;;4181533;28;20041;-52
2021/11/15 01:24:21;;;;;;;12.23;11.43;;;9.80;99.90;;;;;;4180665;28;20083;-53
2021/11/15 01:26:23;;;;;;;11.63;10.57;;;9.80;99.90;;;;;;4179977;28;20505;-51
2021/11/15 01:28:26;;;;;;;11.30;10.38;;;9.80;99.90;;;;;;4178010;28;20453;-50
2021/11/15 01:30:28;;;;;;;9.95;9.20;;;9.80;99.90;;;;;;4176668;28;20037;-52
2021/11/15 01:32:30;;;;;;;9.93;9.10;;;9.90;99.90;;;;;;4180615;28;20144;-52
2021/11/15 01:34:33;;;;;;;10.27;9.63;;;9.90;99.90;;;;;;4178334;28;20044;-51
2021/11/15 01:36:35;;;;;;;;;;;9.90;99.90;;;;;;4179538;28;20095;-52
2021/11/15 01:38:37;;;;;;;9.32;8.48;;;9.90;99.90;;;;;;4176684;28;20024;-52
2021/11/15 01:40:39;;;;;;;8.55;7.80;;;9.90;99.90;;;;;;4181454;28;20106;-50
2021/11/15 01:42:42;;;;;;;9.30;8.50;;;9.90;99.90;;;;;;4174043;28;20061;-51
2021/11/15 01:44:44;;;;;;;9.50;8.23;;;9.90;99.90;;;;;;4179235;28;20564;-52
2021/11/15 01:46:47;;;;;;;9.55;8.88;;;9.90;99.90;;;;;;4168322;28;20076;-51
2021/11/15 01:48:49;;;;;;;8.20;7.85;;;9.90;99.90;;;;;;4180817;28;20389;-53
2021/11/15 01:50:51;;;;;;;9.25;8.82;;;9.90;99.90;;;;;;4180514;28;20048;-51
2021/11/15 01:52:54;;;;;;;8.68;7.88;;;9.90;99.90;;;;;;4180134;28;20037;-51
2021/11/15 01:54:57;;;;;;;7.97;7.57;;;9.90;99.90;;;;;;4178150;28;20030;-53
2021/11/15 01:56:59;;;;;;;9.50;8.80;;;9.90;99.90;;;;;;4173564;28;20044;-51
2021/11/15 01:59:03;;;;;;;10.23;9.63;;;9.90;99.90;;;;;;4177979;28;20547;-53
2021/11/15 02:01:05;;;;;;;9.00;8.48;;;9.90;99.90;;;;;;4176911;28;20052;-50
2021/11/15 02:03:08;;;;;;;9.52;8.43;;;9.90;99.90;;;;;;4168945;28;20532;-51
2021/11/15 02:05:11;;;;;;;;;;;9.90;99.90;;;;;;4179473;28;20128;-51
2021/11/15 02:07:13;;;;;;;8.77;8.25;;;9.90;99.90;;;;;;4179279;28;19970;-52
2021/11/15 02:09:15;;;;;;;8.63;8.10;;;10.00;99.90;;;;;;4180133;28;20064;-50
2021/11/15 02:11:17;;;;;;;8.20;7.70;;;10.00;99.90;;;;;;4174894;28;20115;-52
2021/11/15 02:13:20;;;;;;;8.73;8.13;;;9.90;99.90;;;;;;4179855;28;20040;-53
2021/11/15 02:15:23;;;;;;;9.50;8.85;;;9.90;99.90;;;;;;4170973;28;20112;-52
2021/11/15 02:17:25;;;;;;;10.07;9.27;;;9.90;99.90;;;;;;4173821;28;20099;-53
2021/11/15 02:19:27;;;;;;;9.38;8.70;;;9.90;99.90;;;;;;4172651;28;20033;-52
2021/11/15 02:21:29;;;;;;;9.15;7.63;;;9.90;99.90;;;;;;4178552;28;20536;-51
2021/11/15 02:23:34;;;;;;;8.80;8.20;;;9.90;99.90;;;;;;4175650;28;20408;-51
2021/11/15 02:25:38;;;;;;;8.18;7.40;;;9.90;99.90;;;;;;4179219;28;20509;-52
2021/11/15 02:27:40;;;;;;;8.18;7.75;;;9.90;99.90;;;;;;4179207;28;20065;-53
2021/11/15 02:29:42;;;;;;;8.10;7.63;;;9.90;99.90;;;;;;4177126;28;20409;-53
2021/11/15 02:31:45;;;;;;;9.30;8.38;;;10.00;99.90;;;;;;4173900;28;20071;-48
2021/11/15 02:33:47;;;;;;;7.28;6.90;;;10.00;99.90;;;;;;4169880;28;20087;-53
2021/11/15 02:35:49;;;;;;;6.95;6.53;;;10.00;99.90;;;;;;4179370;28;20048;-50
2021/11/15 02:37:52;;;;;;;8.23;7.60;;;10.10;99.90;;;;;;4184946;28;20084;-52
2021/11/15 02:39:55;;;;;;;5.78;5.40;;;10.10;99.90;;;;;;4176796;28;20606;-51
2021/11/15 02:41:57;;;;;;;4.05;3.95;;;10.30;99.90;;;;;;4168201;28;20041;-53
2021/11/15 02:44:02;;;;;;;3.03;2.92;;;10.60;99.90;;;;;;4173694;28;20473;-52
2021/11/15 02:46:05;;;;;;;4.28;4.15;;;11.10;99.90;;;;;;4172393;28;20132;-52
2021/11/15 02:48:07;;;;;;;;;;;11.30;99.90;;;;;;4178928;28;20041;-52
2021/11/15 02:50:14;;;;;;;9.52;8.68;;;10.90;99.90;;;;;;4166965;28;20019;-51
2021/11/15 02:52:19;;;;;;;6.97;6.63;;;10.60;99.90;;;;;;4173694;28;20041;-52
2021/11/15 02:54:24;;;;;;;8.43;7.80;;;10.40;99.90;;;;;;4179063;28;20037;-50
2021/11/15 02:56:26;;;;;;;7.50;7.10;;;10.30;99.90;;;;;;4179337;28;20032;-52
2021/11/15 02:58:28;;;;;;;6.72;5.53;;;10.30;99.90;;;;;;4177259;28;20041;-52
2021/11/15 03:00:39;;;;;;;7.55;6.55;;;10.20;99.90;;;;;;4176167;28;20045;-52
2021/11/15 03:02:41;;;;;;;6.53;6.32;;;10.20;99.90;;;;;;4175056;28;20044;-51
2021/11/15 03:04:44;;;;;;;6.57;6.38;;;10.30;99.90;;;;;;4177876;28;20048;-51
2021/11/15 03:06:46;;;;;;;6.90;6.60;;;10.20;99.90;;;;;;4179998;28;20497;-49
2021/11/15 03:08:48;;;;;;;7.60;7.13;;;10.20;99.90;;;;;;4176252;28;20048;-52
2021/11/15 03:10:58;;;;;;;9.77;6.70;;;10.20;99.90;;;;;;4179963;28;20037;-51
2021/11/15 03:13:00;;;;;;;7.40;6.93;;;10.20;99.90;;;;;;4176672;28;20041;-50
2021/11/15 03:15:03;;;;;;;6.93;6.53;;;10.10;99.90;;;;;;4174722;28;20124;-52
2021/11/15 03:17:05;;;;;;;7.03;6.63;;;10.10;99.90;;;;;;4176273;28;20072;-51
2021/11/15 03:19:07;;;;;;;7.28;6.88;;;10.00;99.90;;;;;;4178532;28;20095;-52
2021/11/15 03:21:12;;;;;;;7.05;6.55;;;10.00;99.90;;;;;;4176171;28;20090;-49
2021/11/15 03:23:17;;;;;;;7.38;6.68;;;10.00;99.90;;;;;;4166835;28;20448;-52
2021/11/15 03:25:24;;;;;;;7.07;6.57;;;10.00;99.90;;;;;;4176958;28;20037;-50
2021/11/15 03:27:32;;;;;;;8.57;7.95;;;9.90;99.90;;;;;;4177854;28;20033;-51
2021/11/15 03:29:34;;;;;;;7.60;7.25;;;10.00;99.90;;;;;;4178156;28;20033;-51
2021/11/15 03:31:38;;;;;;;6.70;6.20;;;10.00;99.90;;;;;;4178547;28;20029;-51
2021/11/15 03:33:41;;;;;;;7.47;6.88;;;10.00;99.90;;;;;;4177882;28;20420;-53
2021/11/15 03:35:43;;;;;;;6.63;6.25;;;10.00;99.90;;;;;;4176404;28;20450;-51
2021/11/15 03:37:45;;;;;;;7.22;6.85;;;10.00;99.90;;;;;;4198342;28;20532;-51
2021/11/15 03:39:47;;;;;;;6.68;6.00;;;10.10;99.90;;;;;;4176391;28;20037;-52
2021/11/15 03:41:50;;;;;;;6.68;5.75;;;10.10;99.90;;;;;;4178867;28;20040;-51
2021/11/15 03:43:52;;;;;;;6.90;6.30;;;10.10;99.90;;;;;;4174634;28;20041;-53
2021/11/15 03:45:55;;;;;;;6.65;6.45;;;10.10;99.90;;;;;;4171730;28;20073;-52
2021/11/15 03:47:58;;;;;;;6.60;6.15;;;10.00;99.90;;;;;;4177942;28;20132;-52
2021/11/15 03:50:01;;;;;;;6.80;6.53;;;10.00;99.90;;;;;;4178755;28;20059;-52
2021/11/15 03:52:03;;;;;;;4.88;4.65;;;10.00;99.90;;;;;;4176171;28;20539;-51
2021/11/15 03:54:05;;;;;;;6.13;5.57;;;10.10;99.90;;;;;;4178376;28;20052;-51
2021/11/15 03:56:11;;;;;;;5.22;5.13;;;10.10;99.90;;;;;;4178274;28;20045;-52
2021/11/15 03:58:13;;;;;;;4.97;4.78;;;10.20;99.90;;;;;;4177305;28;20036;-51
2021/11/15 04:00:22;;;;;;;5.80;5.45;;;10.30;99.90;;;;;;4176675;28;20076;-52
2021/11/15 04:02:28;;;;;;;7.43;5.57;;;10.30;99.90;;;;;;4178166;28;20039;-52
2021/11/15 04:04:38;;;;;;;5.18;5.07;;;10.30;99.90;;;;;;4174570;28;20041;-52
2021/11/15 04:06:48;;;;;;;4.82;4.53;;;10.30;99.90;;;;;;4176581;28;20064;-52
2021/11/15 04:08:55;;;;;;;5.25;4.95;;;10.30;99.90;;;;;;4173280;28;20044;-53
2021/11/15 04:10:58;;;;;;;4.82;4.60;;;10.30;99.90;;;;;;4179091;28;20040;-53
2021/11/15 04:13:12;;;;;;;10.32;5.28;;;10.40;99.90;;;;;;4176234;28;20136;-53
2021/11/15 04:15:14;;;;;;;4.82;4.63;;;10.40;99.90;;;;;;4178668;28;20111;-52
2021/11/15 04:17:17;;;;;;;3.88;3.75;;;10.40;99.90;;;;;;4175149;28;20052;-52
2021/11/15 04:19:22;;;;;;;4.03;3.67;;;10.40;99.90;;;;;;4162465;28;20492;-53
2021/11/15 04:21:27;;;;;;;7.93;4.18;;;10.60;99.90;;;;;;4175891;28;20048;-52
2021/11/15 04:23:29;;;;;;;4.63;4.25;;;10.60;99.90;;;;;;4178622;28;20041;-51
2021/11/15 04:25:31;;;;;;;4.40;4.30;;;10.70;99.90;;;;;;4176427;28;20116;-53
2021/11/15 04:27:34;;;;;;;4.28;4.07;;;10.60;99.90;;;;;;4178300;28;20041;-52
2021/11/15 04:29:36;;;;;;;;;;;10.40;99.90;;;;;;4174792;28;20071;-52
2021/11/15 04:31:38;;;;;;;5.32;5.13;;;10.30;99.90;;;;;;4163003;28;19928;-52
2021/11/15 04:33:40;;;;;;;6.00;5.60;;;10.20;99.90;;;;;;4177452;28;20039;-51
2021/11/15 04:35:42;;;;;;;5.28;5.07;;;10.20;99.90;;;;;;4163297;28;20033;-52
2021/11/15 04:37:45;;;;;;;4.45;4.35;;;10.20;99.90;;;;;;4175876;28;20044;-52
2021/11/15 04:39:48;;;;;;;5.25;5.03;;;10.20;99.90;;;;;;4177991;28;20075;-53
2021/11/15 04:41:51;;;;;;;4.70;4.50;;;10.20;99.90;;;;;;4176531;28;20072;-53
2021/11/15 04:43:53;;;;;;;4.88;4.68;;;10.20;99.90;;;;;;4176281;28;20413;-51
2021/11/15 04:45:55;;;;;;;4.35;4.07;;;10.30;99.90;;;;;;4178747;28;20139;-52
2021/11/15 04:47:57;;;;;;;5.05;4.72;;;10.40;99.90;;;;;;4177278;28;20087;-52
2021/11/15 04:49:59;;;;;;;4.10;4.00;;;10.40;99.90;;;;;;4177464;28;20033;-53
2021/11/15 04:52:01;;;;;;;4.75;4.65;;;10.40;99.90;;;;;;4180860;28;20048;-52
2021/11/15 04:54:04;;;;;;;5.57;4.28;;;10.40;99.90;;;;;;4181589;28;21026;-52
2021/11/15 04:56:07;;;;;;;4.47;4.18;;;10.50;99.90;;;;;;4180078;28;20041;-52
2021/11/15 04:58:10;;;;;;;3.97;3.78;;;10.60;99.90;;;;;;4181834;28;20037;-53
2021/11/15 05:00:18;;;;;;;;;;;10.60;99.90;;;;;;4177181;28;20039;-53
2021/11/15 05:02:20;;;;;;;3.63;3.53;;;10.50;99.90;;;;;;4179120;28;20400;-53
2021/11/15 05:04:22;;;;;;;3.33;3.22;;;10.60;99.90;;;;;;4169999;28;20045;-53
2021/11/15 05:06:29;;;;;;;3.60;3.40;;;10.60;99.90;;;;;;4180365;28;20049;-53
2021/11/15 05:08:32;;;;;;;3.53;3.30;;;10.60;99.90;;;;;;4179282;28;20476;-52
2021/11/15 05:10:34;;;;;;;3.55;3.45;;;10.70;99.90;;;;;;4172845;28;20512;-52
2021/11/15 05:12:36;;;;;;;2.78;2.65;;;10.80;99.90;;;;;;4167681;28;20041;-52
2021/11/15 05:14:39;;;;;;;2.95;2.85;;;11.10;99.90;;;;;;4179695;28;20075;-50
2021/11/15 05:16:41;;;;;;;3.03;2.83;;;11.20;99.90;;;;;;4178014;28;20046;-51
2021/11/15 05:18:43;;;;;;;3.90;3.67;;;11.40;99.90;;;;;;4180688;28;20505;-53
2021/11/15 05:20:44;;;;;;;3.88;3.78;;;11.20;99.90;;;;;;4178448;28;20052;-51
2021/11/15 05:22:47;;;;;;;3.97;3.88;;;11.00;99.90;;;;;;4181946;28;20052;-53
2021/11/15 05:24:49;;;;;;;3.80;3.70;;;10.80;99.90;;;;;;4178631;28;20042;-53
2021/11/15 05:26:51;;;;;;;3.58;3.47;;;10.80;99.90;;;;;;4180139;28;20479;-53
2021/11/15 05:28:53;;;;;;;3.92;3.65;;;10.70;99.90;;;;;;4177122;28;20504;-53
2021/11/15 05:30:55;;;;;;;3.97;3.88;;;10.80;99.90;;;;;;4179545;28;20033;-52
2021/11/15 05:32:58;;;;;;;3.42;3.33;;;10.80;99.90;;;;;;4174124;28;20087;-51
2021/11/15 05:35:00;;;;;;;5.80;3.55;;;10.90;99.90;;;;;;4174770;28;20045;-51
2021/11/15 05:37:03;;;;;;;5.65;4.93;;;10.90;99.90;;;;;;4172238;28;20384;-52
2021/11/15 05:39:06;;;;;;;3.92;3.83;;;10.90;99.90;;;;;;4171091;28;20561;-52
2021/11/15 05:41:08;;;;;;;4.40;4.22;;;10.80;99.90;;;;;;4175359;28;20040;-52
2021/11/15 05:43:10;;;;;;;4.30;3.95;;;10.90;99.90;;;;;;4180493;28;20041;-52
2021/11/15 05:45:13;;;;;;;6.57;4.32;;;10.90;99.90;;;;;;4177838;28;20487;-52
2021/11/15 05:47:15;;;;;;;5.18;4.90;;;11.00;99.90;;;;;;4179656;28;20212;-52
2021/11/15 05:49:17;;;;;;;5.45;5.25;;;11.00;99.90;;;;;;4177922;28;20040;-53
2021/11/15 05:51:20;;;;;;;6.43;5.93;;;11.00;99.90;;;;;;4180736;28;20064;-53
2021/11/15 05:53:22;;;;;;;6.35;5.88;;;11.10;99.90;;;;;;4179120;28;20041;-52
2021/11/15 05:55:25;;;;;;;5.65;5.45;;;11.00;99.90;;;;;;4180723;28;20095;-53
2021/11/15 05:57:27;;;;;;;5.72;5.50;;;10.90;99.90;;;;;;4177810;28;20500;-52
2021/11/15 05:59:29;;;;;;;5.18;4.72;;;10.80;99.90;;;;;;4179559;28;20468;-52
2021/11/15 06:01:31;;;;;;;3.85;3.72;;;10.70;99.90;;;;;;4177886;28;20067;-51
2021/11/15 06:03:33;;;;;;;4.05;3.85;;;10.60;99.90;;;;;;4177178;28;20350;-52
2021/11/15 06:05:36;;;;;;;4.40;4.20;;;10.70;99.90;;;;;;4171728;28;20532;-52
2021/11/15 06:07:38;;;;;;;;;;;10.80;99.90;;;;;;4180941;28;20148;-50
2021/11/15 06:09:40;;;;;;;3.95;3.75;;;10.80;99.90;;;;;;4179069;28;20401;-53
2021/11/15 06:11:42;;;;;;;4.22;4.05;;;10.70;99.90;;;;;;4180094;28;20060;-52
2021/11/15 06:13:44;;;;;;;4.45;4.18;;;10.80;99.90;;;;;;4177651;28;20037;-51
2021/11/15 06:15:47;;;;;;;3.83;3.60;;;10.70;99.90;;;;;;4180506;28;20072;-51
2021/11/15 06:17:51;;;;;;;4.93;3.75;;;10.70;99.90;;;;;;4177419;28;20056;-52
2021/11/15 06:19:53;;;;;;;5.15;4.32;;;10.70;99.90;;;;;;4180058;28;20037;-52
2021/11/15 06:21:55;;;;;;;5.15;4.90;;;10.70;99.90;;;;;;4179317;28;20410;-52
2021/11/15 06:23:57;;;;;;;4.03;3.78;;;10.90;99.90;;;;;;4180128;28;20049;-54
2021/11/15 06:25:59;;;;;;;3.67;3.47;;;11.40;99.90;;;;;;4178198;28;20095;-53
2021/11/15 06:28:03;;;;;;;4.25;4.00;;;11.50;99.90;;;;;;4180590;28;20123;-53
2021/11/15 06:30:08;;;;;;;4.38;3.97;;;11.50;99.90;;;;;;4177829;28;20029;-53
2021/11/15 06:32:11;;;;;;;4.75;4.55;;;11.40;99.90;;;;;;4178037;28;20051;-53
2021/11/15 06:34:13;;;;;;;5.22;4.85;;;11.30;99.90;;;;;;4174072;28;20041;-54
2021/11/15 06:36:22;;;;;;;4.60;4.50;;;11.40;99.90;;;;;;4180340;28;20704;-53
2021/11/15 06:38:24;;;;;;;3.78;3.58;;;11.50;99.90;;;;;;4175473;28;20037;-53
2021/11/15 06:40:26;;;;;;;4.90;4.55;;;11.40;99.90;;;;;;4180453;28;20527;-51
2021/11/15 06:42:29;;;;;;;4.05;3.95;;;11.40;99.90;;;;;;4176444;28;20045;-53
2021/11/15 06:44:31;;;;;;;3.75;3.60;;;11.40;99.90;;;;;;4180452;28;20476;-53
2021/11/15 06:46:33;;;;;;;4.55;4.15;;;11.40;99.90;;;;;;4175848;28;20056;-53
2021/11/15 06:48:41;;;;;;;6.20;5.85;;;11.40;99.90;;;;;;4173638;28;20041;-54
2021/11/15 06:51:04;;;;;;;3.85;3.75;;;11.30;99.90;;;;;;4179845;28;20041;-53
2021/11/15 06:53:06;;;;;;;3.42;3.10;;;11.60;99.90;;;;;;4178684;28;20048;-53
2021/11/15 06:55:09;;;;;;;2.67;2.58;;;11.60;99.90;;;;;;4179256;28;20076;-54
2021/11/15 06:57:11;;;;;;;2.88;2.72;;;11.70;99.90;;;;;;4177555;28;20033;-54
2021/11/15 06:59:13;;;;;;;2.55;2.45;;;11.90;99.90;;;;;;4178066;28;20075;-54
2021/11/15 07:01:15;;;;;;;3.55;3.22;;;12.10;99.90;;;;;;4178389;28;20476;-53
2021/11/15 07:03:17;;;;;;;3.15;3.00;;;12.30;99.90;;;;;;4179412;28;20037;-54
2021/11/15 07:05:21;;;;;;;3.70;3.50;;;12.30;99.90;;;;;;4167761;28;20037;-53
2021/11/15 07:07:23;;;;;;;2.38;2.28;;;12.20;99.90;;;;;;4180126;28;20033;-54
2021/11/15 07:09:25;;;;;;;3.13;2.75;;;12.40;99.90;;;;;;4179316;28;20041;-53
2021/11/15 07:11:27;;;;;;;3.45;3.15;;;12.50;99.90;;;;;;4179066;28;20087;-54
2021/11/15 07:13:29;;;;;;;5.82;2.53;;;12.40;99.90;;;;;;4179293;28;20562;-54
2021/11/15 07:15:31;;;;;;;2.20;2.20;;;12.40;99.90;;;;;;4174304;28;20067;-53
2021/11/15 07:17:34;;;;;;;2.65;2.55;;;12.30;99.90;;;;;;4174198;28;20428;-54
2021/11/15 07:19:37;;;;;;;2.55;2.35;;;12.50;99.90;;;;;;4176167;28;20505;-53
2021/11/15 07:21:59;;;;;;;;;;;12.50;99.90;;;;;;4167249;28;20041;-54
2021/11/15 07:24:01;;;;;;;3.00;2.37;;;12.70;99.90;;;;;;4169584;28;20419;-53
2021/11/15 07:26:03;;;;;;;;;;;12.80;99.90;;;;;;4169628;28;20037;-53
2021/11/15 07:28:06;;;;;;;6.55;2.60;;;12.90;99.90;;;;;;4180512;28;19970;-53
2021/11/15 07:30:09;;;;;;;2.13;2.05;;;12.90;99.90;;;;;;4176793;28;20037;-54
2021/11/15 07:32:13;;;;;;;2.97;2.75;;;12.90;99.90;;;;;;4179015;28;20079;-54
2021/11/15 07:34:15;;;;;;;1.90;1.80;;;13.00;99.90;;;;;;4179685;28;20388;-54
2021/11/15 07:36:17;;;;;;;2.20;2.15;;;13.00;99.90;;;;;;4173476;28;20044;-54
2021/11/15 07:38:20;;;;;;;2.45;2.25;;;13.00;99.90;;;;;;4172343;28;20048;-54
2021/11/15 07:40:22;;;;;;;;;;;13.00;99.90;;;;;;4173705;28;20095;-54
2021/11/15 07:42:25;;;;;;;2.03;1.92;;;13.00;99.90;;;;;;4175331;28;20317;-54
2021/11/15 07:44:27;;;;;;;5.15;4.50;;;13.00;99.90;;;;;;4179186;28;20535;-53
2021/11/15 07:46:29;;;;;;;3.97;3.67;;;12.90;99.90;;;;;;4174558;28;20069;-54
2021/11/15 07:48:31;;;;;;;6.80;4.35;;;12.70;99.90;;;;;;4176792;28;20045;-54
2021/11/15 07:50:35;;;;;;;2.75;2.53;;;12.70;99.90;;;;;;4171868;28;20045;-54
2021/11/15 07:52:38;;;;;;;5.22;4.85;;;12.70;99.90;;;;;;4178891;28;20779;-54
2021/11/15 07:54:40;;;;;;;7.00;4.38;;;12.70;99.90;;;;;;4175907;28;20115;-54
2021/11/15 07:56:42;;;;;;;3.67;3.47;;;12.80;99.90;;;;;;4178249;28;20040;-55
2021/11/15 07:58:45;;;;;;;3.97;3.75;;;12.90;99.90;;;;;;4174393;28;20021;-53
2021/11/15 08:00:49;;;;;;;4.45;4.25;;;12.90;99.90;;;;;;4178885;28;20083;-53
2021/11/15 08:02:51;;;;;;;3.85;3.72;;;12.80;99.90;;;;;;4174969;28;20608;-53
2021/11/15 08:04:56;;;;;;;4.20;2.25;;;12.80;99.90;;;;;;4175660;28;20386;-53
2021/11/15 08:06:58;;;;;;;4.85;3.40;;;12.90;99.90;;;;;;4176643;28;20075;-54
2021/11/15 08:09:00;;;;;;;3.55;3.35;;;13.00;99.90;;;;;;4165647;28;20083;-54
2021/11/15 08:11:06;;;;;;;3.42;3.22;;;13.10;99.90;;;;;;4174452;28;20401;-55
2021/11/15 08:13:08;;;;;;;3.53;3.33;;;13.20;99.90;;;;;;4178858;28;20041;-54
2021/11/15 08:15:13;;;;;;;4.13;3.63;;;13.40;99.90;;;;;;4177203;28;20115;-54
2021/11/15 08:17:15;;;;;;;2.35;2.25;;;13.40;99.90;;;;;;4176952;28;20048;-54
2021/11/15 08:19:17;;;;;;;5.50;3.35;;;13.70;99.90;;;;;;4174385;28;20462;-55
2021/11/15 08:21:24;;;;;;;2.28;1.85;;;13.80;99.90;;;;;;4170800;28;20081;-53
2021/11/15 08:23:26;;;;;;;8.30;7.70;;;14.20;99.90;;;;;;4175117;28;20546;-54
2021/11/15 08:26:06;;;;;;;8.20;3.45;;;14.20;99.90;;;;;;4162208;28;20770;-54
2021/11/15 08:28:08;;;;;;;13.40;11.15;;;14.10;99.90;;;;;;4197431;28;20068;-54
2021/11/15 08:30:10;;;;;;;11.25;10.00;;;14.10;99.90;;;;;;4163231;28;20049;-54
2021/11/15 08:32:13;;;;;;;4.60;4.20;;;14.10;99.90;;;;;;4177346;28;20116;-53
2021/11/15 08:34:17;;;;;;;2.38;2.28;;;14.10;99.90;;;;;;4171510;28;20077;-54
2021/11/15 08:36:19;;;;;;;2.15;2.05;;;14.20;99.90;;;;;;4179031;28;20044;-53
2021/11/15 08:38:39;;;;;;;1.50;1.50;;;14.30;99.90;;;;;;4175958;28;20154;-54
2021/11/15 08:40:50;;;;;;;1.90;1.85;;;14.30;99.90;;;;;;4176353;28;20080;-54
2021/11/15 08:42:53;;;;;;;1.95;1.85;;;14.40;99.90;;;;;;4177017;28;20795;-54
2021/11/15 08:45:00;;;;;;;3.85;1.83;;;14.30;99.90;;;;;;4178289;28;20064;-54
2021/11/15 08:47:03;;;;;;;1.75;1.65;;;14.30;99.90;;;;;;4175150;28;20542;-54
2021/11/15 08:49:08;;;;;;;1.90;1.75;;;14.30;99.90;;;;;;4178112;28;20729;-54
2021/11/15 08:51:12;;;;;;;2.17;2.08;;;14.20;99.90;;;;;;4177617;28;20115;-55
2021/11/15 08:53:15;;;;;;;1.65;1.65;;;14.20;99.90;;;;;;4172955;28;20037;-54
2021/11/15 08:55:17;;;;;;;;;;;14.20;99.90;;;;;;4177208;28;20060;-51
2021/11/15 08:57:19;;;;;;;1.83;1.75;;;14.20;99.90;;;;;;4178000;28;20352;-52
2021/11/15 08:59:22;;;;;;;1.70;1.60;;;14.20;99.90;;;;;;4175713;28;20037;-52
2021/11/15 09:01:25;;;;;;;1.83;1.75;;;14.20;99.90;;;;;;4178420;28;20045;-51
2021/11/15 09:03:27;;;;;;;2.35;1.77;;;14.30;99.90;;;;;;4177189;28;20546;-52
2021/11/15 09:05:29;;;;;;;1.77;1.67;;;14.20;99.90;;;;;;4178405;28;20044;-52
2021/11/15 09:07:36;;;;;;;2.00;1.90;;;14.20;99.90;;;;;;4173748;28;20052;-52
2021/11/15 09:09:40;;;;;;;1.92;1.55;;;14.20;99.90;;;;;;4165247;28;20041;-52
2021/11/15 09:11:47;;;;;;;1.42;1.40;;;14.30;99.90;;;;;;4173937;28;20072;-51
2021/11/15 09:13:49;;;;;;;1.33;1.33;;;14.30;99.90;;;;;;4178707;28;20037;-51
2021/11/15 09:15:51;;;;;;;5.32;1.70;;;14.30;99.90;;;;;;4172053;28;20079;-51
2021/11/15 09:17:53;;;;;;;1.50;1.50;;;14.40;99.90;;;;;;4177361;28;20033;-52
2021/11/15 09:19:56;;;;;;;2.70;1.40;;;14.40;99.90;;;;;;4173702;28;20090;-52
2021/11/15 09:21:58;;;;;;;2.42;1.48;;;14.40;99.90;;;;;;4169184;28;20048;-52
2021/11/15 09:24:00;;;;;;;2.05;1.92;;;14.50;99.90;;;;;;4177024;28;20037;-52
2021/11/15 09:26:02;;;;;;;2.17;1.58;;;14.50;99.90;;;;;;4162368;28;20053;-52
2021/11/15 09:28:04;;;;;;;1.50;1.40;;;14.60;99.90;;;;;;4176903;28;20041;-53
2021/11/15 09:30:09;;;;;;;2.10;1.50;;;14.60;99.90;;;;;;4178288;28;20091;-51
2021/11/15 09:32:12;;;;;;;1.45;1.35;;;14.60;99.90;;;;;;4172540;28;20098;-52
2021/11/15 09:34:14;;;;;;;1.77;1.67;;;14.60;99.90;;;;;;4174607;28;20132;-51
2021/11/15 09:36:22;;;;;;;2.13;1.30;;;14.60;99.90;;;;;;4175523;28;20094;-52
2021/11/15 09:38:24;;;;;;;1.70;1.60;;;14.70;99.90;;;;;;4168752;28;20114;-51
2021/11/15 09:40:26;;;;;;;3.80;1.48;;;14.70;99.90;;;;;;4179317;28;20443;-51
2021/11/15 09:42:29;;;;;;;1.33;1.25;;;14.70;99.90;;;;;;4179584;28;20040;-51
2021/11/15 09:44:31;;;;;;;1.40;1.30;;;14.80;99.90;;;;;;4180149;28;20486;-52
2021/11/15 09:46:34;;;;;;;;;;;14.80;99.90;;;;;;4178246;28;20061;-52
2021/11/15 09:48:39;;;;;;;2.67;1.65;;;14.80;99.90;;;;;;4181770;28;20388;-52
2021/11/15 09:50:41;;;;;;;1.60;1.50;;;14.90;99.90;;;;;;4173668;28;20048;-51
2021/11/15 09:52:44;;;;;;;1.95;1.85;;;14.90;99.90;;;;;;4181338;28;20120;-52
2021/11/15 09:54:47;;;;;;;2.15;1.70;;;15.00;99.90;;;;;;4165263;28;20087;-52
2021/11/15 09:57:10;;;;;;;2.15;1.60;;;15.00;99.90;;;;;;4179751;28;20127;-51
2021/11/15 09:59:13;;;;;;;5.88;2.60;;;15.00;99.90;;;;;;4178275;28;20673;-52
2021/11/15 10:01:15;;;;;;;3.03;2.88;;;15.10;99.90;;;;;;4179793;28;20048;-52
2021/11/15 10:03:18;;;;;;;2.78;2.67;;;15.10;99.90;;;;;;4177432;28;20116;-53
2021/11/15 10:05:20;;;;;;;1.90;1.80;;;15.10;99.90;;;;;;4179110;28;20052;-52
2021/11/15 10:07:45;;;;;;;3.88;1.75;;;15.10;99.90;;;;;;4171889;28;20037;-52
2021/11/15 10:09:48;;;;;;;1.80;1.67;;;15.20;99.90;;;;;;4171407;28;20041;-52
2021/11/15 10:11:51;;;;;;;3.80;3.63;;;15.30;99.90;;;;;;4174158;28;20075;-52
2021/11/15 10:13:55;;;;;;;9.43;5.68;;;15.30;99.90;;;;;;4179765;28;20048;-52
2021/11/15 10:16:13;;;;;;;7.35;3.65;;;15.40;99.90;;;;;;4177811;28;20552;-52
2021/11/15 10:18:28;;;;;;;4.20;2.70;;;15.30;99.90;;;;;;4179535;28;20053;-51
2021/11/15 10:20:50;;;;;;;4.45;4.05;;;15.40;99.90;;;;;;4179552;28;20091;-52
2021/11/15 10:22:56;;;;;;;3.50;3.08;;;15.40;99.90;;;;;;4178078;28;20064;-52
2021/11/15 10:24:58;;;;;;;1.90;1.77;;;15.50;99.90;;;;;;4178260;28;20041;-52
2021/11/15 10:27:09;;;;;;;2.30;2.20;;;15.50;99.90;;;;;;4178026;28;20038;-51
2021/11/15 10:29:11;;;;;;;1.63;1.52;;;15.50;99.90;;;;;;4180858;28;20136;-52
2021/11/15 10:31:29;;;;;;;1.30;1.20;;;15.50;99.90;;;;;;4179596;28;20401;-52
2021/11/15 10:33:38;;;;;;;1.58;1.50;;;15.70;99.90;;;;;;4179148;28;20036;-52
2021/11/15 10:35:41;;;;;;;1.00;1.00;;;15.90;99.90;;;;;;4176160;28;20041;-51
2021/11/15 10:37:44;;;;;;;1.70;1.08;;;16.00;99.90;;;;;;4179750;28;20065;-51
2021/11/15 10:39:51;;;;;;;1.38;1.27;;;16.20;99.90;;;;;;4177218;28;20078;-51
2021/11/15 10:42:05;;;;;;;1.20;1.13;;;16.20;99.90;;;;;;4169155;28;20042;-51
2021/11/15 10:44:12;;;;;;;2.67;1.02;;;16.30;99.90;;;;;;4172226;28;20037;-51